Time;durP1;ratioP1;P1;durP2;ratioP2;P2;SDS_P1;SDS_P2;PMS_P1;PMS_P2;Temp;Humidity;BMP_temperature;BMP_pressure;BME280_temperature;BME280_humidity;BME280_pressure;Samples;Min_cycle;Max_cycle;Signal;HPM_P1;HPM_P2
2024/01/19 00:00:34;;;;;;;68.20;24.80;;;;;;;0.36;95.03;99611.47;5975472;23;20028;-87
2024/01/19 00:03:01;;;;;;;63.67;23.13;;;;;;;0.28;94.69;99617.97;5976715;23;20028;-87
2024/01/19 00:05:28;;;;;;;82.22;25.50;;;;;;;0.27;94.61;99618.91;5976070;23;20071;-87
2024/01/19 00:07:55;;;;;;;69.55;23.20;;;;;;;0.21;94.13;99625.28;5977117;23;20015;-87
2024/01/19 00:10:22;;;;;;;68.78;23.27;;;;;;;0.20;93.94;99621.84;5975512;23;20523;-87
2024/01/19 00:12:49;;;;;;;70.68;24.10;;;;;;;0.16;93.67;99637.72;5976064;23;20087;-87
2024/01/19 00:15:15;;;;;;;67.18;23.55;;;;;;;0.14;93.63;99629.09;5953552;23;20075;-87
2024/01/19 00:17:42;;;;;;;64.38;24.70;;;;;;;0.14;93.31;99644.78;5952737;23;20353;-87
2024/01/19 00:20:10;;;;;;;70.93;24.73;;;;;;;0.14;93.47;99655.22;5953327;23;20027;-87
2024/01/19 00:22:37;;;;;;;73.03;24.13;;;;;;;0.16;93.67;99654.22;5976482;23;20496;-87
2024/01/19 00:25:04;;;;;;;70.32;23.73;;;;;;;0.20;93.94;99652.28;5976745;23;20031;-86
2024/01/19 00:27:31;;;;;;;61.22;21.73;;;;;;;0.14;94.03;99657.81;5930012;23;20031;-87
2024/01/19 00:29:58;;;;;;;64.80;22.25;;;;;;;0.13;93.67;99663.97;5976639;23;20348;-87
2024/01/19 00:32:25;;;;;;;64.93;22.33;;;;;;;0.11;94.27;99656.22;5953481;23;20511;-87
2024/01/19 00:34:52;;;;;;;66.13;22.30;;;;;;;0.10;94.05;99658.88;5976808;23;20082;-88
2024/01/19 00:37:19;;;;;;;67.30;21.88;;;;;;;0.05;93.50;99659.13;5976599;23;20034;-87
2024/01/19 00:39:45;;;;;;;65.22;22.42;;;;;;;0.06;93.27;99663.41;5930371;23;20043;-87
2024/01/19 00:42:12;;;;;;;66.72;24.25;;;;;;;0.06;93.34;99668.63;5976924;23;20031;-87
2024/01/19 00:44:39;;;;;;;68.88;25.33;;;;;;;0.03;93.37;99674.00;5976263;23;20449;-87
2024/01/19 00:47:06;;;;;;;70.15;23.70;;;;;;;0.05;93.48;99671.31;5953777;23;20019;-87
2024/01/19 00:49:33;;;;;;;72.38;24.45;;;;;;;0.07;93.42;99678.16;5976895;23;20019;-87
2024/01/19 00:51:59;;;;;;;78.57;26.08;;;;;;;0.04;92.95;99675.69;6000214;23;20034;-87
2024/01/19 00:54:26;;;;;;;76.25;25.10;;;;;;;0.02;92.81;99679.28;5976630;23;20050;-87
2024/01/19 00:56:53;;;;;;;63.65;23.90;;;;;;;0.00;92.90;99684.59;5931541;23;20052;-87
2024/01/19 00:59:20;;;;;;;66.20;24.40;;;;;;;-0.09;92.89;99691.09;5975637;23;20118;-87
2024/01/19 01:01:47;;;;;;;83.70;25.30;;;;;;;-0.16;92.41;99687.06;5953356;23;20016;-87
2024/01/19 01:04:14;;;;;;;67.13;23.08;;;;;;;-0.07;92.67;99693.63;5977161;23;20024;-87
2024/01/19 01:06:41;;;;;;;70.88;25.15;;;;;;;-0.18;92.93;99698.50;5976935;23;20456;-87
2024/01/19 01:09:08;;;;;;;69.60;25.17;;;;;;;-0.18;92.26;99696.72;5952649;23;20479;-88
2024/01/19 01:11:35;;;;;;;64.97;24.00;;;;;;;-0.26;91.38;99709.28;5976416;23;20020;-87
2024/01/19 01:14:02;;;;;;;66.10;22.60;;;;;;;-0.30;91.40;99715.59;5953180;23;20022;-88
2024/01/19 01:16:30;;;;;;;64.70;22.92;;;;;;;-0.34;90.38;99720.06;5953077;23;20110;-88
2024/01/19 01:18:57;;;;;;;68.50;22.52;;;;;;;-0.38;91.28;99726.38;5977061;23;20016;-87
2024/01/19 01:21:25;;;;;;;55.60;20.50;;;;;;;-0.37;90.05;99735.03;5925779;23;20028;-87
2024/01/19 01:23:52;;;;;;;61.45;21.58;;;;;;;-0.45;90.29;99735.38;5948697;23;20128;-88
2024/01/19 01:26:19;;;;;;;60.63;21.23;;;;;;;-0.46;90.23;99742.38;5948950;23;20091;-87
2024/01/19 01:28:46;;;;;;;63.17;22.58;;;;;;;-0.48;90.65;99754.63;5971909;23;20028;-87
2024/01/19 01:31:12;;;;;;;65.65;20.02;;;;;;;-0.46;90.50;99757.16;5976546;23;20020;-87
2024/01/19 01:33:39;;;;;;;67.93;22.42;;;;;;;-0.54;91.49;99764.47;5977338;23;20031;-87
2024/01/19 01:36:06;;;;;;;72.07;23.00;;;;;;;-0.54;91.53;99769.69;5955673;23;20027;-87
2024/01/19 01:38:33;;;;;;;67.03;22.42;;;;;;;-0.53;91.81;99767.03;5978290;23;20357;-87
2024/01/19 01:41:00;;;;;;;78.78;25.10;;;;;;;-0.52;91.83;99773.91;5955396;23;20100;-87
2024/01/19 01:43:27;;;;;;;63.42;23.13;;;;;;;-0.58;91.20;99787.25;5978323;23;20879;-87
2024/01/19 01:45:54;;;;;;;61.83;21.48;;;;;;;-0.52;90.48;99786.13;5978314;23;20449;-88
2024/01/19 01:48:23;;;;;;;59.47;19.70;;;;;;;-0.56;90.55;99794.97;5955232;23;20072;-87
2024/01/19 01:50:51;;;;;;;62.42;22.95;;;;;;;-0.48;89.60;99800.72;5955106;23;20028;-86
2024/01/19 01:53:19;;;;;;;68.65;23.45;;;;;;;-0.37;89.78;99801.09;5977394;23;20092;-87
2024/01/19 01:55:46;;;;;;;77.88;24.45;;;;;;;-0.34;89.59;99802.72;5978280;23;20169;-86
2024/01/19 01:58:15;;;;;;;69.85;23.05;;;;;;;-0.28;89.00;99803.31;5955979;23;20087;-87
2024/01/19 02:00:42;;;;;;;71.55;24.65;;;;;;;-0.22;89.11;99804.78;5954544;23;20471;-88
2024/01/19 02:03:10;;;;;;;78.18;25.35;;;;;;;-0.21;88.67;99801.25;5976893;23;20051;-86
2024/01/19 02:05:37;;;;;;;70.93;24.40;;;;;;;-0.13;88.95;99809.59;5978294;23;20050;-86
2024/01/19 02:08:04;;;;;;;79.43;25.05;;;;;;;-0.17;89.03;99815.03;5955114;23;20023;-88
2024/01/19 02:10:31;;;;;;;70.00;25.33;;;;;;;-0.19;89.61;99816.84;5931852;23;20023;-88
2024/01/19 02:12:57;;;;;;;71.20;25.58;;;;;;;-0.23;89.73;99824.84;5955248;23;20032;-87
2024/01/19 02:15:29;;;;;;;70.43;24.38;;;;;;;-0.33;89.75;99830.50;5931794;23;20023;-87
2024/01/19 02:17:55;;;;;;;63.00;22.75;;;;;;;-0.36;90.34;99830.63;5978954;23;20093;-87
2024/01/19 02:20:22;;;;;;;62.38;22.27;;;;;;;-0.38;90.55;99828.13;5954137;23;20034;-87
2024/01/19 02:22:50;;;;;;;62.75;21.83;;;;;;;-0.41;91.17;99828.22;5978569;23;20027;-87
2024/01/19 02:25:16;;;;;;;70.30;25.65;;;;;;;-0.44;91.77;99830.97;6000566;23;20397;-87
2024/01/19 02:27:43;;;;;;;72.05;25.30;;;;;;;-0.41;91.35;99843.03;5954491;23;20027;-87
2024/01/19 02:30:11;;;;;;;64.95;22.40;;;;;;;-0.39;91.00;99849.88;5977948;23;20020;-87
2024/01/19 02:32:38;;;;;;;71.55;24.95;;;;;;;-0.40;90.66;99848.19;5975915;23;20033;-87
2024/01/19 02:35:05;;;;;;;63.03;23.90;;;;;;;-0.34;90.76;99845.31;5954780;23;20027;-88
2024/01/19 02:37:32;;;;;;;64.13;24.17;;;;;;;-0.41;91.31;99848.25;5978120;23;20015;-88
2024/01/19 02:40:00;;;;;;;76.35;24.38;;;;;;;-0.50;91.99;99845.13;5977309;23;20043;-87
2024/01/19 02:42:29;;;;;;;74.78;24.88;;;;;;;-0.39;91.04;99860.31;5955694;23;20026;-87
2024/01/19 02:44:59;;;;;;;71.82;25.42;;;;;;;-0.40;91.17;99863.84;5955013;23;20031;-87
2024/01/19 02:47:27;;;;;;;66.80;23.13;;;;;;;-0.44;90.95;99873.56;5931932;23;20024;-88
2024/01/19 02:49:54;;;;;;;75.95;25.90;;;;;;;-0.44;90.58;99864.88;5955054;23;20075;-88
2024/01/19 02:52:21;;;;;;;78.75;26.58;;;;;;;-0.42;91.19;99868.28;5954460;23;20107;-87
2024/01/19 02:54:48;;;;;;;76.65;26.17;;;;;;;-0.40;91.36;99868.22;5977820;23;20095;-87
2024/01/19 02:57:15;;;;;;;59.45;23.85;;;;;;;-0.42;91.48;99865.66;5954766;23;20462;-88
2024/01/19 02:59:42;;;;;;;61.38;24.05;;;;;;;-0.46;92.19;99871.91;5953913;23;20423;-87
2024/01/19 03:02:09;;;;;;;74.28;25.75;;;;;;;-0.40;92.12;99869.06;5978140;23;20094;-88
2024/01/19 03:04:35;;;;;;;84.20;26.70;;;;;;;-0.35;92.34;99874.94;5977384;23;20340;-87
2024/01/19 03:07:02;;;;;;;82.28;28.05;;;;;;;-0.39;92.47;99877.72;5977452;23;20028;-87
2024/01/19 03:09:29;;;;;;;74.95;26.52;;;;;;;-0.35;91.99;99879.31;5953934;23;20019;-87
2024/01/19 03:11:56;;;;;;;81.53;26.90;;;;;;;-0.50;92.60;99878.19;5932515;23;20052;-86
2024/01/19 03:14:23;;;;;;;77.97;27.75;;;;;;;-0.42;92.37;99883.09;5977325;23;20023;-86
2024/01/19 03:16:51;;;;;;;85.90;29.67;;;;;;;-0.46;91.90;99879.75;5955558;23;20107;-86
2024/01/19 03:19:18;;;;;;;92.05;29.13;;;;;;;-0.39;92.34;99878.56;5978010;23;20091;-87
2024/01/19 03:21:45;;;;;;;86.90;26.77;;;;;;;-0.36;91.68;99883.66;5977795;23;20016;-86
2024/01/19 03:24:12;;;;;;;73.18;27.35;;;;;;;-0.43;91.84;99882.25;5978625;23;20015;-86
2024/01/19 03:26:39;;;;;;;75.05;27.10;;;;;;;-0.36;91.55;99875.81;5977612;23;20031;-87
2024/01/19 03:29:06;;;;;;;75.18;28.33;;;;;;;-0.35;91.61;99879.31;5977351;23;20050;-86
2024/01/19 03:31:33;;;;;;;71.72;27.40;;;;;;;-0.35;92.21;99880.16;6000453;23;20736;-86
2024/01/19 03:34:00;;;;;;;76.20;26.63;;;;;;;-0.31;92.04;99873.03;6001599;23;20098;-87
2024/01/19 03:36:27;;;;;;;78.85;27.60;;;;;;;-0.29;92.10;99877.25;5978043;23;20028;-87
2024/01/19 03:38:54;;;;;;;80.70;28.52;;;;;;;-0.27;91.84;99879.81;5955534;23;20090;-87
2024/01/19 03:41:20;;;;;;;78.97;27.08;;;;;;;-0.29;92.14;99879.88;5977519;23;20114;-87
2024/01/19 03:43:47;;;;;;;82.93;28.83;;;;;;;-0.32;91.80;99882.63;5977688;23;20333;-88
2024/01/19 03:46:14;;;;;;;83.63;28.02;;;;;;;-0.39;91.97;99888.16;5978221;23;20016;-88
2024/01/19 03:48:41;;;;;;;84.35;28.58;;;;;;;-0.33;92.32;99886.16;5976876;23;20107;-87
2024/01/19 03:51:08;;;;;;;87.88;28.15;;;;;;;-0.37;92.52;99886.34;5954588;23;20035;-87
2024/01/19 03:53:34;;;;;;;79.55;27.30;;;;;;;-0.38;92.76;99877.69;5977520;23;20397;-87
2024/01/19 03:56:01;;;;;;;92.35;29.08;;;;;;;-0.46;93.01;99885.84;5953963;23;20028;-87
2024/01/19 03:58:28;;;;;;;79.72;28.48;;;;;;;-0.46;92.94;99888.44;5976767;23;20023;-88
2024/01/19 04:00:55;;;;;;;82.15;26.50;;;;;;;-0.42;92.50;99889.16;6000856;23;20321;-88
2024/01/19 04:03:22;;;;;;;79.53;28.38;;;;;;;-0.38;92.19;99892.47;5931193;23;20019;-87
2024/01/19 04:05:49;;;;;;;86.10;30.05;;;;;;;-0.42;91.80;99891.75;5977262;23;20032;-87
2024/01/19 04:08:16;;;;;;;85.57;29.70;;;;;;;-0.48;92.29;99899.84;5976977;23;20095;-87
2024/01/19 04:10:43;;;;;;;91.63;29.75;;;;;;;-0.39;92.29;99909.03;5953619;23;20046;-86
2024/01/19 04:13:09;;;;;;;83.57;30.40;;;;;;;-0.44;92.17;99899.63;5976539;23;20024;-86
2024/01/19 04:15:36;;;;;;;86.55;28.98;;;;;;;-0.50;91.96;99899.91;5977281;23;20044;-86
2024/01/19 04:18:04;;;;;;;74.00;25.88;;;;;;;-0.56;91.45;99901.91;5955067;23;20444;-89
2024/01/19 04:20:31;;;;;;;83.40;29.15;;;;;;;-0.63;91.70;99897.88;5955705;23;20016;-88
2024/01/19 04:22:58;;;;;;;80.80;29.50;;;;;;;-0.61;91.80;99901.25;5978517;23;20031;-87
2024/01/19 04:25:25;;;;;;;89.75;28.15;;;;;;;-0.58;91.45;99911.59;5955148;23;20024;-88
2024/01/19 04:27:51;;;;;;;79.55;31.42;;;;;;;-0.55;91.36;99908.84;5977650;23;20034;-87
2024/01/19 04:30:18;;;;;;;86.63;30.60;;;;;;;-0.53;91.15;99907.88;6000996;23;20020;-87
2024/01/19 04:32:45;;;;;;;81.72;28.58;;;;;;;-0.48;91.08;99910.28;5978015;23;20475;-87
2024/01/19 04:35:12;;;;;;;96.25;32.08;;;;;;;-0.55;90.90;99914.91;5926840;23;20028;-87
2024/01/19 04:37:38;;;;;;;83.60;30.67;;;;;;;-0.57;91.00;99911.50;5949415;23;20036;-87
2024/01/19 04:40:06;;;;;;;80.80;28.85;;;;;;;-0.64;91.11;99919.63;5950659;23;20331;-87
2024/01/19 04:42:33;;;;;;;80.25;27.48;;;;;;;-0.57;90.67;99918.47;5949355;23;20024;-87
2024/01/19 04:44:59;;;;;;;77.10;30.00;;;;;;;-0.54;90.77;99916.59;5949395;23;20024;-87
2024/01/19 04:47:26;;;;;;;91.60;29.75;;;;;;;-0.61;90.86;99925.59;5925575;23;20032;-87
2024/01/19 04:49:53;;;;;;;85.30;29.90;;;;;;;-0.61;90.21;99930.81;5949553;23;20089;-87
2024/01/19 04:52:20;;;;;;;73.40;26.55;;;;;;;-0.58;89.67;99930.69;5949663;23;20076;-87
2024/01/19 04:54:47;;;;;;;85.82;28.50;;;;;;;-0.62;90.65;99931.69;5950479;23;20043;-87
2024/01/19 04:57:13;;;;;;;77.35;27.80;;;;;;;-0.69;89.74;99940.69;5972371;23;20020;-87
2024/01/19 04:59:40;;;;;;;79.47;27.65;;;;;;;-0.68;89.61;99945.00;5949805;23;20020;-86
2024/01/19 05:02:07;;;;;;;77.78;27.63;;;;;;;-0.67;89.75;99944.94;5973195;23;20020;-87
2024/01/19 05:04:34;;;;;;;78.35;29.23;;;;;;;-0.71;89.48;99945.97;5972120;23;20341;-86
2024/01/19 05:07:01;;;;;;;76.75;28.73;;;;;;;-0.79;89.12;99942.84;5949855;23;20020;-87
2024/01/19 05:09:28;;;;;;;78.18;28.45;;;;;;;-0.79;88.71;99955.00;5949443;23;20032;-87
2024/01/19 05:11:55;;;;;;;83.47;27.90;;;;;;;-0.80;88.90;99954.16;5949136;23;20032;-88
2024/01/19 05:14:22;;;;;;;79.43;27.63;;;;;;;-0.80;89.39;99963.75;5993764;23;20084;-87
2024/01/19 05:16:48;;;;;;;71.57;26.35;;;;;;;-0.74;90.30;99966.97;5926098;23;20512;-81
2024/01/19 05:19:15;;;;;;;78.22;26.73;;;;;;;-0.62;90.09;99969.97;5974205;23;20441;-87
2024/01/19 05:21:42;;;;;;;71.68;27.25;;;;;;;-0.72;88.21;99972.94;5926858;23;20441;-89
2024/01/19 05:24:09;;;;;;;72.32;25.20;;;;;;;-0.75;87.09;99977.44;5926918;23;20080;-90
2024/01/19 05:26:36;;;;;;;62.20;24.83;;;;;;;-0.81;87.15;99988.97;5926366;23;20035;-88
2024/01/19 05:29:02;;;;;;;66.53;25.95;;;;;;;-0.79;87.66;99987.16;5949452;23;20132;-90
2024/01/19 05:31:29;;;;;;;65.65;24.02;;;;;;;-0.88;87.02;99984.91;5947409;23;20353;-90
2024/01/19 05:33:56;;;;;;;64.75;24.67;;;;;;;-0.90;87.60;99989.31;5949429;23;20019;-90
2024/01/19 05:36:23;;;;;;;66.88;23.98;;;;;;;-0.90;86.96;99995.38;5926258;23;20031;-88
2024/01/19 05:38:50;;;;;;;80.40;25.65;;;;;;;-0.93;86.72;100002.47;5947843;23;20032;-90
2024/01/19 05:41:21;;;;;;;57.70;22.25;;;;;;;-0.88;86.81;100008.38;5924954;23;20016;-88
2024/01/19 05:43:48;;;;;;;59.08;23.40;;;;;;;-0.83;87.12;100008.19;5948583;23;20024;-88
2024/01/19 05:46:15;;;;;;;59.00;22.27;;;;;;;-1.02;86.93;100018.47;5924658;23;20112;-90
2024/01/19 05:48:41;;;;;;;58.58;21.65;;;;;;;-0.95;86.53;100019.94;5948198;23;20103;-89
2024/01/19 05:51:15;;;;;;;58.88;21.50;;;;;;;-0.94;86.56;100021.63;5949438;23;20031;-85
2024/01/19 05:53:42;;;;;;;52.25;21.55;;;;;;;-0.95;86.68;100023.38;5972802;23;20066;-88
2024/01/19 05:56:09;;;;;;;57.33;22.60;;;;;;;-0.93;87.32;100026.78;5926985;23;20016;-84
2024/01/19 05:58:36;;;;;;;65.38;22.38;;;;;;;-0.91;87.55;100021.53;5926483;23;20433;-84
2024/01/19 06:01:04;;;;;;;62.08;22.15;;;;;;;-0.90;87.69;100036.25;5950386;23;20024;-84
2024/01/19 06:03:35;;;;;;;58.25;19.27;;;;;;;-0.97;87.99;100038.22;5949428;23;20319;-84
2024/01/19 06:06:03;;;;;;;53.50;20.55;;;;;;;-0.97;87.71;100053.00;5928035;23;20483;-84
2024/01/19 06:08:31;;;;;;;56.00;20.75;;;;;;;-1.02;87.73;100058.38;5932142;23;20023;-84
2024/01/19 06:10:58;;;;;;;59.70;19.80;;;;;;;-1.02;87.39;100057.56;5977886;23;20038;-85
2024/01/19 06:13:25;;;;;;;63.75;23.05;;;;;;;-1.11;87.48;100057.00;5977707;23;20074;-87
2024/01/19 06:15:51;;;;;;;60.85;20.98;;;;;;;-1.00;88.30;100066.16;5955465;23;20023;-84
2024/01/19 06:18:18;;;;;;;55.10;21.38;;;;;;;-1.00;87.78;100076.59;5955000;23;20023;-84
2024/01/19 06:20:46;;;;;;;58.67;20.60;;;;;;;-1.05;87.64;100075.91;5979253;23;20032;-84
2024/01/19 06:23:13;;;;;;;48.92;20.13;;;;;;;-1.08;87.22;100083.84;5979920;23;20028;-84
2024/01/19 06:25:40;;;;;;;53.45;20.75;;;;;;;-1.09;86.85;100088.22;5956277;23;20031;-84
2024/01/19 06:28:07;;;;;;;47.30;19.70;;;;;;;-1.13;86.37;100095.28;6002291;23;20079;-84
2024/01/19 06:30:34;;;;;;;53.15;18.52;;;;;;;-1.15;86.18;100089.25;6002591;23;20348;-84
2024/01/19 06:33:02;;;;;;;53.47;20.88;;;;;;;-1.17;85.96;100101.53;5979247;23;20079;-84
2024/01/19 06:35:29;;;;;;;55.15;19.20;;;;;;;-1.18;86.19;100112.84;5978911;23;20024;-84
2024/01/19 06:37:56;;;;;;;50.20;20.30;;;;;;;-1.20;86.16;100112.03;5977067;23;20030;-88
2024/01/19 06:40:23;;;;;;;48.50;19.08;;;;;;;-1.14;85.79;100116.19;5976248;23;20028;-88
2024/01/19 06:42:50;;;;;;;54.75;20.42;;;;;;;-1.31;85.81;100127.22;5977109;23;20129;-86
2024/01/19 06:45:17;;;;;;;51.78;18.85;;;;;;;-1.27;85.63;100127.94;6000127;23;20019;-88
2024/01/19 06:47:43;;;;;;;60.65;21.60;;;;;;;-1.28;85.80;100132.31;5976207;23;20027;-87
2024/01/19 06:50:10;;;;;;;59.80;20.30;;;;;;;-1.33;85.55;100144.63;5953771;23;20044;-88
2024/01/19 06:52:37;;;;;;;60.85;20.23;;;;;;;-1.32;85.17;100151.56;5999504;23;20027;-87
2024/01/19 06:55:05;;;;;;;54.35;18.85;;;;;;;-1.39;85.41;100153.53;5977202;23;20456;-88
2024/01/19 06:57:32;;;;;;;47.40;18.27;;;;;;;-1.48;85.15;100166.84;5977603;23;20030;-88
2024/01/19 06:59:59;;;;;;;49.45;18.08;;;;;;;-1.46;85.29;100174.63;5976542;23;20355;-88
2024/01/19 07:02:26;;;;;;;49.13;18.23;;;;;;;-1.49;85.21;100182.53;5953193;23;20569;-88
2024/01/19 07:04:53;;;;;;;53.70;19.02;;;;;;;-1.60;84.66;100178.53;5977253;23;20099;-88
2024/01/19 07:07:20;;;;;;;53.90;19.75;;;;;;;-1.55;85.46;100184.44;5931603;23;20016;-88
2024/01/19 07:09:47;;;;;;;55.15;21.05;;;;;;;-1.56;85.29;100187.94;5975470;23;20044;-87
2024/01/19 07:12:16;;;;;;;53.92;19.70;;;;;;;-1.53;85.18;100197.41;5977597;23;20024;-89
2024/01/19 07:14:43;;;;;;;51.28;19.33;;;;;;;-1.63;85.17;100196.88;5954079;23;20720;-88
2024/01/19 07:17:11;;;;;;;55.08;19.67;;;;;;;-1.64;84.62;100202.97;5999514;23;20516;-88
2024/01/19 07:19:41;;;;;;;59.92;24.02;;;;;;;-1.56;84.67;100203.56;5998843;23;20028;-87
2024/01/19 07:22:09;;;;;;;60.80;21.75;;;;;;;-1.63;84.90;100202.09;5976446;23;20030;-88
2024/01/19 07:24:35;;;;;;;64.55;24.33;;;;;;;-1.55;85.20;100214.84;5975798;23;20107;-88
2024/01/19 07:27:04;;;;;;;55.15;21.58;;;;;;;-1.57;85.52;100217.50;5976220;23;20027;-88
2024/01/19 07:29:31;;;;;;;61.17;23.10;;;;;;;-1.68;84.65;100213.53;5975455;23;20026;-88
2024/01/19 07:31:59;;;;;;;54.40;22.10;;;;;;;-1.79;84.21;100217.31;5976528;23;20609;-89
2024/01/19 07:34:27;;;;;;;62.00;21.38;;;;;;;-1.72;83.78;100219.75;5930286;23;20696;-88
2024/01/19 07:36:54;;;;;;;48.00;19.98;;;;;;;-1.68;84.03;100224.81;5976813;23;20034;-88
2024/01/19 07:39:23;;;;;;;60.05;21.67;;;;;;;-1.75;84.75;100231.09;5975188;23;21022;-88
2024/01/19 07:41:53;;;;;;;55.60;22.40;;;;;;;-1.62;84.89;100232.41;5977307;23;20030;-88
2024/01/19 07:44:20;;;;;;;58.15;21.95;;;;;;;-1.71;84.84;100230.09;5977199;23;20032;-88
2024/01/19 07:46:48;;;;;;;54.20;21.23;;;;;;;-1.80;84.09;100228.66;5953067;23;20020;-88
2024/01/19 07:49:20;;;;;;;48.47;19.38;;;;;;;-1.83;83.62;100238.28;5975413;23;20032;-88
2024/01/19 07:51:48;;;;;;;57.53;21.73;;;;;;;-1.82;83.17;100243.44;5999843;23;20019;-88
2024/01/19 07:54:17;;;;;;;52.63;20.13;;;;;;;-1.72;83.30;100244.03;5953042;23;20107;-89
2024/01/19 07:56:44;;;;;;;58.42;20.73;;;;;;;-1.71;83.14;100244.88;5953916;23;20524;-88
2024/01/19 07:59:11;;;;;;;54.53;21.27;;;;;;;-1.72;83.27;100254.44;5975229;23;20039;-88
2024/01/19 08:01:40;;;;;;;52.70;21.92;;;;;;;-1.60;83.96;100259.25;5975793;23;20024;-89
2024/01/19 08:04:07;;;;;;;58.10;21.30;;;;;;;-1.59;85.04;100257.50;5975746;23;20034;-88
2024/01/19 08:06:34;;;;;;;58.38;22.27;;;;;;;-1.51;84.95;100262.47;5976611;23;20119;-89
2024/01/19 08:09:02;;;;;;;57.60;21.50;;;;;;;-1.53;85.85;100267.72;5975817;23;20044;-88
2024/01/19 08:11:29;;;;;;;57.05;21.20;;;;;;;-1.55;86.55;100272.16;5976041;23;20051;-88
2024/01/19 08:13:55;;;;;;;52.03;20.90;;;;;;;-1.62;87.26;100274.06;5976705;23;20027;-88
2024/01/19 08:16:23;;;;;;;51.60;20.80;;;;;;;-1.55;86.93;100280.81;5975888;23;20361;-89
2024/01/19 08:18:49;;;;;;;56.05;20.30;;;;;;;-1.54;86.81;100284.25;5976082;23;20024;-88
2024/01/19 08:21:16;;;;;;;60.30;21.85;;;;;;;-1.54;86.57;100285.09;5952915;23;20027;-88
2024/01/19 08:23:43;;;;;;;56.33;22.33;;;;;;;-1.59;86.69;100280.94;5976085;23;20405;-88
2024/01/19 08:26:10;;;;;;;69.28;21.80;;;;;;;-1.47;86.86;100293.59;5976131;23;20027;-88
2024/01/19 08:28:37;;;;;;;62.15;23.60;;;;;;;-1.46;87.15;100299.63;5952608;23;20092;-88
2024/01/19 08:31:04;;;;;;;64.63;26.45;;;;;;;-1.44;87.14;100308.25;5998935;23;20094;-89
2024/01/19 08:33:30;;;;;;;63.80;24.23;;;;;;;-1.44;87.00;100305.66;5999976;23;20035;-90
2024/01/19 08:35:57;;;;;;;64.60;25.48;;;;;;;-1.36;86.51;100314.06;5999962;23;20417;-88
2024/01/19 08:38:24;;;;;;;78.45;27.20;;;;;;;-1.38;86.48;100318.47;5998561;23;20608;-88
2024/01/19 08:40:51;;;;;;;65.30;27.15;;;;;;;-1.32;86.08;100323.50;5953217;23;20035;-88
2024/01/19 08:43:17;;;;;;;63.80;27.52;;;;;;;-1.33;86.45;100319.19;5953285;23;20028;-88
2024/01/19 08:45:44;;;;;;;69.32;27.05;;;;;;;-1.25;86.59;100332.81;5975650;23;20024;-88
2024/01/19 08:48:12;;;;;;;75.55;28.20;;;;;;;-1.36;86.62;100334.91;5976460;23;20452;-88
2024/01/19 08:50:40;;;;;;;69.38;26.80;;;;;;;-1.25;86.63;100335.41;5926832;23;20724;-88
2024/01/19 08:53:07;;;;;;;71.78;27.45;;;;;;;-1.26;86.67;100335.47;5924899;23;20124;-88
2024/01/19 08:55:34;;;;;;;66.63;26.58;;;;;;;-1.31;86.45;100336.47;5971367;23;20040;-89
2024/01/19 08:58:00;;;;;;;67.30;27.48;;;;;;;-1.28;86.55;100345.09;5948179;23;20096;-88
2024/01/19 09:00:27;;;;;;;73.07;27.33;;;;;;;-1.23;87.41;100340.59;5947373;23;20028;-88
2024/01/19 09:02:54;;;;;;;70.90;26.40;;;;;;;-1.17;87.66;100346.47;5948239;23;20357;-88
2024/01/19 09:05:29;;;;;;;68.50;26.48;;;;;;;-1.11;87.83;100350.63;5926260;23;20016;-88
2024/01/19 09:07:57;;;;;;;67.20;26.10;;;;;;;-1.10;87.30;100350.56;5948686;23;20028;-88
2024/01/19 09:10:24;;;;;;;67.93;26.85;;;;;;;-1.05;87.36;100353.03;5946787;23;20028;-88
2024/01/19 09:12:50;;;;;;;67.38;26.90;;;;;;;-0.93;87.55;100365.66;5924949;23;20052;-89
2024/01/19 09:15:17;;;;;;;75.93;28.98;;;;;;;-0.81;88.06;100377.44;5925461;23;20121;-88
2024/01/19 09:17:44;;;;;;;65.85;26.83;;;;;;;-0.75;88.26;100385.06;5948013;23;20108;-88
2024/01/19 09:20:11;;;;;;;59.08;25.00;;;;;;;-0.70;88.14;100380.53;5946860;23;20026;-88
2024/01/19 09:22:38;;;;;;;61.67;24.00;;;;;;;-0.61;87.80;100388.97;5925365;23;20362;-88
2024/01/19 09:25:06;;;;;;;52.47;21.13;;;;;;;-0.60;87.79;100390.69;5947938;23;20028;-88
2024/01/19 09:27:33;;;;;;;62.88;22.92;;;;;;;-0.57;87.83;100395.78;5924870;23;20024;-87
2024/01/19 09:29:59;;;;;;;50.58;21.02;;;;;;;-0.53;87.73;100407.84;5947515;23;20871;-88
2024/01/19 09:32:27;;;;;;;57.80;21.65;;;;;;;-0.52;87.70;100401.69;5947844;23;20361;-88
2024/01/19 09:34:54;;;;;;;53.58;21.63;;;;;;;-0.50;87.86;100405.13;5948006;23;20103;-88
2024/01/19 09:37:20;;;;;;;48.80;21.50;;;;;;;-0.49;88.15;100412.03;5925317;23;20100;-89
2024/01/19 09:39:47;;;;;;;54.38;21.27;;;;;;;-0.44;87.86;100425.78;5922741;23;20028;-88
2024/01/19 09:42:24;;;;;;;51.40;20.73;;;;;;;-0.41;88.24;100423.06;5948158;23;20103;-88
2024/01/19 09:45:00;;;;;;;56.70;20.30;;;;;;;-0.37;87.75;100423.81;5948048;23;20497;-88
2024/01/19 09:47:56;;;;;;;56.92;20.40;;;;;;;-0.29;87.75;100435.69;5970509;23;20032;-88
2024/01/19 09:50:26;;;;;;;56.55;20.50;;;;;;;-0.22;87.81;100437.19;5959191;23;20100;-87
2024/01/19 09:53:00;;;;;;;50.83;18.63;;;;;;;-0.18;87.73;100437.91;5971592;23;20028;-88
2024/01/19 09:55:27;;;;;;;56.30;21.17;;;;;;;-0.20;87.95;100442.38;5948009;23;20028;-86
2024/01/19 09:57:58;;;;;;;51.03;20.67;;;;;;;-0.25;87.72;100449.50;5926820;23;20039;-87
2024/01/19 10:00:24;;;;;;;58.10;21.70;;;;;;;-0.24;87.46;100457.25;5946910;23;20017;-87
2024/01/19 10:02:52;;;;;;;57.95;22.95;;;;;;;-0.28;87.22;100468.72;5973067;23;20024;-87
2024/01/19 10:05:21;;;;;;;52.45;22.92;;;;;;;-0.34;87.45;100475.91;5972833;23;20035;-87
2024/01/19 10:07:49;;;;;;;56.50;22.73;;;;;;;-0.26;87.50;100479.09;5949375;23;20378;-87
2024/01/19 10:10:16;;;;;;;48.33;21.98;;;;;;;-0.24;87.99;100479.91;5948991;23;20051;-87
2024/01/19 10:12:43;;;;;;;60.35;21.42;;;;;;;-0.26;88.15;100479.09;5926741;23;20024;-87
2024/01/19 10:15:14;;;;;;;70.78;23.75;;;;;;;-0.24;88.05;100479.91;5973161;23;20020;-87
2024/01/19 10:17:42;;;;;;;64.28;24.40;;;;;;;-0.21;88.42;100482.41;5925207;23;20429;-86
2024/01/19 10:20:14;;;;;;;60.65;23.73;;;;;;;-0.22;88.38;100476.34;5948835;23;20032;-87
2024/01/19 10:22:41;;;;;;;66.10;22.67;;;;;;;-0.25;88.05;100479.06;5995744;23;20035;-88
2024/01/19 10:25:10;;;;;;;62.20;23.98;;;;;;;-0.26;88.31;100487.78;5926272;23;20378;-87
2024/01/19 10:27:38;;;;;;;62.08;24.70;;;;;;;-0.22;88.71;100489.38;5925731;23;20103;-86
2024/01/19 10:30:12;;;;;;;68.35;24.15;;;;;;;-0.21;88.47;100498.06;5926158;23;20084;-87
2024/01/19 10:32:40;;;;;;;67.03;23.58;;;;;;;-0.23;88.42;100490.31;5974669;23;20028;-87
2024/01/19 10:35:14;;;;;;;73.63;26.33;;;;;;;-0.22;88.58;100493.75;5925951;23;20516;-87
2024/01/19 10:37:42;;;;;;;65.60;24.25;;;;;;;-0.28;88.66;100494.81;5925933;23;20449;-87
2024/01/19 10:40:20;;;;;;;55.25;21.38;;;;;;;-0.29;87.96;100494.88;5925981;23;20028;-87
2024/01/19 10:42:50;;;;;;;66.07;24.15;;;;;;;-0.37;88.22;100502.09;5970260;23;20019;-87
2024/01/19 10:45:21;;;;;;;66.57;24.23;;;;;;;-0.40;88.64;100499.59;5926293;23;20098;-87
2024/01/19 10:47:53;;;;;;;63.08;23.48;;;;;;;-0.33;88.30;100501.06;5948062;23;20062;-87
2024/01/19 10:50:25;;;;;;;57.75;23.17;;;;;;;-0.34;88.46;100500.22;5948452;23;20658;-87
2024/01/19 10:52:53;;;;;;;62.20;22.30;;;;;;;-0.30;88.74;100494.00;5947029;23;20020;-88
2024/01/19 10:55:22;;;;;;;62.88;22.90;;;;;;;-0.29;88.44;100502.69;5926541;23;20035;-88
2024/01/19 10:57:51;;;;;;;56.58;22.23;;;;;;;-0.29;87.75;100500.09;5948211;23;20032;-87
2024/01/19 11:00:20;;;;;;;55.55;20.85;;;;;;;-0.35;88.11;100508.13;5949122;23;20016;-88
2024/01/19 11:02:48;;;;;;;57.90;23.23;;;;;;;-0.33;88.54;100499.34;5971781;23;20024;-88
2024/01/19 11:05:18;;;;;;;60.67;22.17;;;;;;;-0.24;88.93;100511.22;5926035;23;20025;-88
2024/01/19 11:07:46;;;;;;;55.88;21.35;;;;;;;-0.26;88.73;100508.66;5948555;23;20103;-88
2024/01/19 11:10:13;;;;;;;57.30;21.42;;;;;;;-0.27;89.08;100519.16;5925297;23;20063;-88
2024/01/19 11:12:47;;;;;;;61.00;22.83;;;;;;;-0.25;88.51;100514.75;5926280;23;20024;-89
2024/01/19 11:15:51;;;;;;;55.08;22.20;;;;;;;-0.23;88.13;100512.91;5971736;23;20028;-88